Time;durP1;ratioP1;P1;durP2;ratioP2;P2;SDS_P1;SDS_P2;PMS_P1;PMS_P2;Temp;Humidity;BMP_temperature;BMP_pressure;BME280_temperature;BME280_humidity;BME280_pressure;Samples;Min_cycle;Max_cycle;Signal;HPM_P1;HPM_P2
2021/05/28 00:01:37;;;;;;;2.07;1.30;;;19.50;65.80;;;;;;5143147;28;20456;-42
2021/05/28 00:04:08;;;;;;;3.40;1.50;;;19.40;66.60;;;;;;5143586;28;20420;-42
2021/05/28 00:06:39;;;;;;;1.70;1.10;;;19.40;68.00;;;;;;5140105;27;20423;-42
2021/05/28 00:09:09;;;;;;;1.90;1.13;;;19.10;65.20;;;;;;5146479;27;20478;-42
2021/05/28 00:11:40;;;;;;;3.57;1.33;;;18.70;66.00;;;;;;5146960;27;20482;-41
2021/05/28 00:14:11;;;;;;;2.70;1.40;;;18.50;67.10;;;;;;5146423;27;21450;-41
2021/05/28 00:16:41;;;;;;;3.93;1.43;;;18.30;68.30;;;;;;5145731;27;20449;-42
2021/05/28 00:19:13;;;;;;;3.00;1.83;;;18.20;67.20;;;;;;5145900;27;20480;-41
2021/05/28 00:21:44;;;;;;;2.53;1.33;;;18.20;65.70;;;;;;5146630;27;20957;-40
2021/05/28 00:24:14;;;;;;;3.50;2.00;;;18.00;69.00;;;;;;5147236;27;20441;-41
2021/05/28 00:26:45;;;;;;;2.60;1.30;;;17.90;70.90;;;;;;5146232;27;20423;-40
2021/05/28 00:29:15;;;;;;;2.03;1.30;;;18.10;71.30;;;;;;5145974;27;20477;-41
2021/05/28 00:31:46;;;;;;;1.47;1.17;;;18.10;71.90;;;;;;5146418;27;20464;-42
2021/05/28 00:34:17;;;;;;;2.43;1.70;;;18.10;69.40;;;;;;5133704;27;20509;-42
2021/05/28 00:36:48;;;;;;;4.50;1.70;;;18.20;69.90;;;;;;5143013;27;20447;-42
2021/05/28 00:39:18;;;;;;;3.07;1.43;;;18.10;69.70;;;;;;5143171;27;20433;-42
2021/05/28 00:41:49;;;;;;;4.60;1.60;;;17.90;70.90;;;;;;5134433;27;20455;-42
2021/05/28 00:44:23;;;;;;;4.20;1.60;;;17.50;71.30;;;;;;5142938;27;20444;-42
2021/05/28 00:46:54;;;;;;;3.37;1.60;;;17.50;73.80;;;;;;5145238;27;20502;-42
2021/05/28 00:49:26;;;;;;;5.40;1.70;;;17.40;75.10;;;;;;5144731;27;20476;-41
2021/05/28 00:51:57;;;;;;;4.53;1.67;;;17.50;75.00;;;;;;5139512;27;20511;-42
2021/05/28 00:54:27;;;;;;;2.00;1.60;;;17.60;74.50;;;;;;5144757;27;20468;-42
2021/05/28 00:56:58;;;;;;;3.07;1.33;;;17.60;77.70;;;;;;5144279;27;20450;-41
2021/05/28 00:59:29;;;;;;;3.10;1.37;;;17.80;75.80;;;;;;5146020;27;20451;-41
2021/05/28 01:02:00;;;;;;;3.67;1.50;;;17.70;75.20;;;;;;5145996;27;20445;-41
2021/05/28 01:04:31;;;;;;;4.70;2.20;;;17.70;76.20;;;;;;5145510;27;20441;-41
2021/05/28 01:07:02;;;;;;;4.50;1.23;;;17.60;77.90;;;;;;5146392;27;20482;-41
2021/05/28 01:09:33;;;;;;;4.67;1.57;;;17.70;79.40;;;;;;5144913;27;20464;-41
2021/05/28 01:12:03;;;;;;;2.93;1.80;;;17.60;77.50;;;;;;5145579;27;20445;-41
2021/05/28 01:14:34;;;;;;;3.20;1.43;;;17.40;79.00;;;;;;5144909;27;20448;-41
2021/05/28 01:17:05;;;;;;;4.90;2.17;;;17.30;81.80;;;;;;5145322;27;20449;-41
2021/05/28 01:19:37;;;;;;;3.17;2.03;;;17.10;82.10;;;;;;5143169;27;20448;-40
2021/05/28 01:22:10;;;;;;;2.50;1.40;;;17.00;82.40;;;;;;5144966;27;20437;-40
2021/05/28 01:24:40;;;;;;;2.47;1.20;;;16.90;82.40;;;;;;5144733;27;20517;-40
2021/05/28 01:27:13;;;;;;;2.63;2.10;;;17.00;84.30;;;;;;5145094;27;20445;-41
2021/05/28 01:29:44;;;;;;;3.70;1.80;;;17.00;86.60;;;;;;5143588;27;20477;-41
2021/05/28 01:32:15;;;;;;;4.43;1.67;;;17.00;87.30;;;;;;5139899;27;20448;-41
2021/05/28 01:34:46;;;;;;;5.30;1.60;;;17.10;86.60;;;;;;5143799;27;20433;-41
2021/05/28 01:37:17;;;;;;;2.33;1.60;;;16.90;86.80;;;;;;5145891;27;20493;-41
2021/05/28 01:39:49;;;;;;;1.53;1.10;;;16.90;87.30;;;;;;5144891;27;20480;-41
2021/05/28 01:42:20;;;;;;;1.97;1.30;;;16.70;87.60;;;;;;5144506;27;20509;-41
2021/05/28 01:44:53;;;;;;;3.30;1.77;;;16.50;88.40;;;;;;5143888;27;20492;-42
2021/05/28 01:47:23;;;;;;;2.80;1.73;;;16.50;89.90;;;;;;5143404;27;20959;-41
2021/05/28 01:49:55;;;;;;;4.00;1.33;;;16.50;88.80;;;;;;5143893;27;20469;-41
2021/05/28 01:52:27;;;;;;;4.90;1.83;;;16.20;90.20;;;;;;5145264;27;20465;-41
2021/05/28 01:54:58;;;;;;;4.30;1.23;;;16.10;90.70;;;;;;5143785;27;20466;-41
2021/05/28 01:57:28;;;;;;;3.93;1.50;;;16.20;90.40;;;;;;5144392;27;20796;-41
2021/05/28 01:59:59;;;;;;;3.10;1.40;;;16.20;91.10;;;;;;5143919;27;20457;-40
2021/05/28 02:02:30;;;;;;;4.63;1.87;;;16.10;91.50;;;;;;5143706;27;20452;-40
2021/05/28 02:05:00;;;;;;;4.60;1.70;;;16.10;92.20;;;;;;5149495;27;20453;-42
2021/05/28 02:07:32;;;;;;;1.53;1.00;;;16.20;91.80;;;;;;5144867;27;20437;-42
2021/05/28 02:10:02;;;;;;;1.87;1.10;;;16.10;92.80;;;;;;5143947;27;20456;-41
2021/05/28 02:12:33;;;;;;;3.17;1.03;;;15.90;93.20;;;;;;5144150;27;20516;-41
2021/05/28 02:15:04;;;;;;;3.90;1.13;;;15.70;93.90;;;;;;5143031;27;20471;-41
2021/05/28 02:17:34;;;;;;;2.13;0.97;;;15.60;94.50;;;;;;5142954;27;20496;-40
2021/05/28 02:20:06;;;;;;;2.70;1.30;;;15.50;94.60;;;;;;5142433;27;20462;-41
2021/05/28 02:22:37;;;;;;;2.20;1.17;;;15.50;94.80;;;;;;5143281;27;20479;-41
2021/05/28 02:25:10;;;;;;;5.80;1.40;;;15.50;95.70;;;;;;5142947;27;20451;-41
2021/05/28 02:27:40;;;;;;;4.17;1.50;;;15.50;95.70;;;;;;5144132;27;20547;-40
2021/05/28 02:30:12;;;;;;;4.20;1.30;;;15.50;96.00;;;;;;5143037;27;20452;-41
2021/05/28 02:32:43;;;;;;;3.20;1.23;;;15.50;95.60;;;;;;5142573;27;20544;-40
2021/05/28 02:35:14;;;;;;;5.50;1.30;;;15.50;95.50;;;;;;5143933;27;20433;-41
2021/05/28 02:37:46;;;;;;;2.50;1.23;;;15.40;95.50;;;;;;5142147;27;20470;-41
2021/05/28 02:40:17;;;;;;;4.80;1.60;;;15.40;95.20;;;;;;5144987;27;20579;-42
2021/05/28 02:42:47;;;;;;;5.07;1.47;;;15.30;95.70;;;;;;5143218;27;20449;-42
2021/05/28 02:45:18;;;;;;;3.00;1.27;;;15.20;96.10;;;;;;5142685;27;20437;-41
2021/05/28 02:47:49;;;;;;;1.40;1.00;;;15.20;96.70;;;;;;5143919;27;20524;-42
2021/05/28 02:50:21;;;;;;;4.83;1.30;;;15.20;96.40;;;;;;5142927;27;20468;-42
2021/05/28 02:52:55;;;;;;;2.30;1.23;;;15.20;96.60;;;;;;5143714;27;20516;-41
2021/05/28 02:55:28;;;;;;;3.77;1.30;;;15.20;96.20;;;;;;5143945;27;20466;-42
2021/05/28 02:58:01;;;;;;;3.67;1.00;;;15.10;96.70;;;;;;5143656;27;20471;-41
2021/05/28 03:00:31;;;;;;;3.23;1.40;;;15.00;97.00;;;;;;5140313;27;20476;-41
2021/05/28 03:03:02;;;;;;;3.37;1.47;;;15.00;97.70;;;;;;5143545;28;20471;-41
2021/05/28 03:05:32;;;;;;;3.13;1.03;;;14.90;97.60;;;;;;5143926;28;20536;-42
2021/05/28 03:08:04;;;;;;;1.50;1.10;;;14.90;98.40;;;;;;5142483;28;20460;-41
2021/05/28 03:10:37;;;;;;;2.00;1.17;;;14.70;98.20;;;;;;5144156;28;20440;-41
2021/05/28 03:13:08;;;;;;;3.30;1.30;;;14.70;98.70;;;;;;5142437;28;20499;-42
2021/05/28 03:15:38;;;;;;;1.13;1.03;;;14.60;98.70;;;;;;5139318;28;20441;-41
2021/05/28 03:18:15;;;;;;;5.57;1.67;;;14.70;99.40;;;;;;5128795;28;20477;-41
2021/05/28 03:20:48;;;;;;;2.43;1.20;;;14.60;98.60;;;;;;5140828;28;20552;-39
2021/05/28 03:23:20;;;;;;;3.50;1.50;;;14.60;99.10;;;;;;5142846;27;20452;-41
2021/05/28 03:25:50;;;;;;;2.70;1.10;;;14.50;99.20;;;;;;5143279;28;20449;-40
2021/05/28 03:28:21;;;;;;;2.60;1.20;;;14.40;99.80;;;;;;5142296;28;20505;-41
2021/05/28 03:30:51;;;;;;;5.47;1.53;;;14.40;99.90;;;;;;5142561;28;20469;-41
2021/05/28 03:33:22;;;;;;;3.70;1.43;;;14.30;99.90;;;;;;5126952;28;20533;-41
2021/05/28 03:35:52;;;;;;;2.77;1.90;;;14.30;99.90;;;;;;5143820;28;20848;-41
2021/05/28 03:38:24;;;;;;;3.93;1.83;;;14.10;99.90;;;;;;5145391;27;20456;-40
2021/05/28 03:40:54;;;;;;;3.07;1.30;;;13.90;99.90;;;;;;5143525;27;20444;-41
2021/05/28 03:43:25;;;;;;;4.63;1.90;;;13.80;99.90;;;;;;5146837;27;20463;-40
2021/05/28 03:45:56;;;;;;;8.67;1.83;;;13.80;99.90;;;;;;5145941;27;20459;-41
2021/05/28 03:48:26;;;;;;;5.57;1.60;;;13.80;99.90;;;;;;5146559;27;20440;-42
2021/05/28 03:50:58;;;;;;;4.47;1.70;;;13.80;99.90;;;;;;5137828;27;21389;-42
2021/05/28 03:53:29;;;;;;;3.23;1.53;;;13.80;99.90;;;;;;5139055;27;20480;-43
2021/05/28 03:56:00;;;;;;;6.80;1.53;;;13.80;99.90;;;;;;5126975;27;20531;-42
2021/05/28 03:58:30;;;;;;;4.17;1.40;;;13.70;99.90;;;;;;5141879;27;20456;-42
2021/05/28 04:01:01;;;;;;;2.83;1.43;;;13.70;99.90;;;;;;5145849;27;20480;-42
2021/05/28 04:03:31;;;;;;;2.73;1.87;;;13.70;99.90;;;;;;5147566;27;20452;-41
2021/05/28 04:06:02;;;;;;;3.03;1.43;;;13.60;99.90;;;;;;5147200;27;20468;-41
2021/05/28 04:08:33;;;;;;;4.27;1.30;;;13.60;99.90;;;;;;5142017;27;20496;-41
2021/05/28 04:11:04;;;;;;;2.13;1.50;;;13.50;99.90;;;;;;5145473;27;20532;-41
2021/05/28 04:13:34;;;;;;;3.70;1.50;;;13.60;99.90;;;;;;5146309;27;20556;-40
2021/05/28 04:16:05;;;;;;;5.00;1.00;;;13.50;99.90;;;;;;5144551;27;20463;-40
2021/05/28 04:18:36;;;;;;;4.30;1.00;;;13.40;99.90;;;;;;5147061;27;20444;-40
2021/05/28 04:21:07;;;;;;;3.83;1.70;;;13.40;99.90;;;;;;5146445;27;20468;-40
2021/05/28 04:23:38;;;;;;;1.90;1.20;;;13.30;99.90;;;;;;5145955;27;20468;-40
2021/05/28 04:26:09;;;;;;;4.30;1.47;;;13.40;99.90;;;;;;5146040;27;20464;-40
2021/05/28 04:28:39;;;;;;;2.93;1.27;;;13.30;99.90;;;;;;5146442;27;20472;-41
2021/05/28 04:31:11;;;;;;;2.47;1.23;;;13.30;99.90;;;;;;5145501;27;20426;-40
2021/05/28 04:33:41;;;;;;;3.47;1.20;;;13.30;99.90;;;;;;5146353;27;21013;-43
2021/05/28 04:36:12;;;;;;;6.10;1.70;;;13.20;99.90;;;;;;5145874;27;20476;-42
2021/05/28 04:38:43;;;;;;;4.23;1.40;;;13.20;99.90;;;;;;5145704;27;20445;-41
2021/05/28 04:41:14;;;;;;;5.20;1.37;;;13.10;99.90;;;;;;5129608;27;20447;-41
2021/05/28 04:43:44;;;;;;;4.13;1.57;;;13.10;99.90;;;;;;5137903;27;20482;-41
2021/05/28 04:46:15;;;;;;;4.30;2.00;;;13.00;99.90;;;;;;5144026;27;20437;-42
2021/05/28 04:48:46;;;;;;;8.83;1.80;;;13.00;99.90;;;;;;5145867;27;20452;-40
2021/05/28 04:51:17;;;;;;;2.33;1.40;;;13.00;99.90;;;;;;5142377;27;20445;-41
2021/05/28 04:53:49;;;;;;;4.90;1.37;;;13.00;99.90;;;;;;5134545;27;20903;-44
2021/05/28 04:56:19;;;;;;;2.43;1.30;;;13.00;99.90;;;;;;5145432;27;20502;-41
2021/05/28 04:58:50;;;;;;;4.50;1.67;;;13.00;99.90;;;;;;5146010;27;20452;-41
2021/05/28 05:01:20;;;;;;;2.43;1.30;;;13.00;99.90;;;;;;5145649;27;20461;-41
2021/05/28 05:03:51;;;;;;;3.70;1.57;;;12.90;99.90;;;;;;5145272;27;20465;-41
2021/05/28 05:06:21;;;;;;;6.50;2.13;;;12.90;99.90;;;;;;5145076;27;20445;-41
2021/05/28 05:08:53;;;;;;;6.90;1.60;;;12.80;99.90;;;;;;5144184;27;20453;-42
2021/05/28 05:11:23;;;;;;;4.40;1.90;;;12.80;99.90;;;;;;5141837;27;20469;-42
2021/05/28 05:13:54;;;;;;;4.70;1.60;;;12.80;99.90;;;;;;5143985;27;20460;-43
2021/05/28 05:16:27;;;;;;;2.93;1.70;;;12.70;99.90;;;;;;5144987;27;20508;-42
2021/05/28 05:19:13;;;;;;;2.93;1.50;;;12.70;99.90;;;;;;5145262;27;20449;-43
2021/05/28 05:21:43;;;;;;;5.47;1.93;;;12.70;99.90;;;;;;5145350;27;20493;-42
2021/05/28 05:24:15;;;;;;;9.33;1.97;;;12.70;99.90;;;;;;5144277;27;20498;-43
2021/05/28 05:26:45;;;;;;;3.63;2.00;;;12.60;99.90;;;;;;5144786;27;20853;-42
2021/05/28 05:29:16;;;;;;;4.37;1.77;;;12.60;99.90;;;;;;5144881;27;20437;-42
2021/05/28 05:31:46;;;;;;;2.50;1.50;;;12.60;99.90;;;;;;5140527;27;20445;-42
2021/05/28 05:34:17;;;;;;;3.03;1.83;;;12.50;99.90;;;;;;5132709;27;20256;-43
2021/05/28 05:36:47;;;;;;;3.20;1.60;;;12.50;99.90;;;;;;5144864;27;20901;-42
2021/05/28 05:39:21;;;;;;;7.68;1.92;;;12.50;99.90;;;;;;5132435;27;20441;-42
2021/05/28 05:41:52;;;;;;;5.55;1.75;;;12.50;99.90;;;;;;5144931;27;20234;-42
2021/05/28 05:44:22;;;;;;;6.22;1.52;;;12.50;99.90;;;;;;5143313;27;20267;-42
2021/05/28 05:46:53;;;;;;;3.93;1.90;;;12.50;99.90;;;;;;5145013;27;20187;-42
2021/05/28 05:49:24;;;;;;;4.35;1.70;;;12.50;99.90;;;;;;5144505;27;20599;-42
2021/05/28 05:51:55;;;;;;;3.53;1.50;;;12.50;99.90;;;;;;5143915;27;20244;-43
2021/05/28 05:54:26;;;;;;;3.90;1.60;;;12.50;99.90;;;;;;5144193;27;20512;-42
2021/05/28 05:56:57;;;;;;;5.50;1.60;;;12.50;99.90;;;;;;5144287;27;20302;-41
2021/05/28 05:59:29;;;;;;;2.23;1.33;;;12.50;99.90;;;;;;5144740;27;20441;-42
2021/05/28 06:02:02;;;;;;;5.20;1.63;;;12.60;99.90;;;;;;5133826;27;20449;-42
2021/05/28 06:04:32;;;;;;;2.63;1.37;;;12.60;99.90;;;;;;5144420;27;20473;-41
2021/05/28 06:07:03;;;;;;;3.73;1.57;;;12.60;99.90;;;;;;5144247;27;20524;-42
2021/05/28 06:09:34;;;;;;;5.60;1.40;;;12.50;99.90;;;;;;5143815;27;20465;-41
2021/05/28 06:12:05;;;;;;;3.53;1.20;;;12.60;99.90;;;;;;5144191;27;20199;-41
2021/05/28 06:14:36;;;;;;;6.30;1.60;;;12.60;99.90;;;;;;5143559;27;20516;-41
2021/05/28 06:17:06;;;;;;;3.00;1.50;;;12.50;99.90;;;;;;5143724;27;20224;-41
2021/05/28 06:19:37;;;;;;;2.80;1.57;;;12.50;99.90;;;;;;5143587;27;20473;-41
2021/05/28 06:22:07;;;;;;;4.30;1.57;;;12.40;99.90;;;;;;5144253;27;20574;-44
2021/05/28 06:24:39;;;;;;;2.13;1.67;;;12.40;99.90;;;;;;5143353;27;20444;-41
2021/05/28 06:27:10;;;;;;;3.60;1.67;;;12.40;99.90;;;;;;5143899;27;20432;-42
2021/05/28 06:29:44;;;;;;;3.80;1.30;;;12.40;99.90;;;;;;5143928;27;20444;-41
2021/05/28 06:32:15;;;;;;;2.80;1.70;;;12.40;99.90;;;;;;5143892;27;20449;-41
2021/05/28 06:34:45;;;;;;;4.07;1.00;;;12.40;99.90;;;;;;5143315;27;20231;-41
2021/05/28 06:37:15;;;;;;;3.70;1.47;;;12.40;99.90;;;;;;5143686;27;20453;-41
2021/05/28 06:39:47;;;;;;;2.30;1.27;;;12.30;99.90;;;;;;5144028;27;20456;-41
2021/05/28 06:42:17;;;;;;;2.63;1.40;;;12.20;99.90;;;;;;5143753;27;20445;-41
2021/05/28 06:44:48;;;;;;;3.30;1.35;;;12.10;99.90;;;;;;5143465;27;20441;-41
2021/05/28 06:47:18;;;;;;;2.83;1.27;;;12.10;99.90;;;;;;5143878;27;20202;-42
2021/05/28 06:49:49;;;;;;;3.75;0.90;;;12.10;99.90;;;;;;5141280;27;20500;-41
2021/05/28 06:52:21;;;;;;;1.85;1.10;;;12.10;99.90;;;;;;5143959;27;20521;-41
2021/05/28 06:54:55;;;;;;;2.22;1.15;;;12.10;99.90;;;;;;5143313;27;20233;-41
2021/05/28 06:57:26;;;;;;;2.40;1.40;;;12.10;99.90;;;;;;5143624;27;20207;-41
2021/05/28 06:59:59;;;;;;;3.27;1.10;;;12.20;99.90;;;;;;5143894;27;20468;-42
2021/05/28 07:02:29;;;;;;;2.95;1.23;;;12.20;99.90;;;;;;5143580;27;20448;-41
2021/05/28 07:05:00;;;;;;;5.33;1.23;;;12.20;99.90;;;;;;5143425;28;20227;-42
2021/05/28 07:07:30;;;;;;;2.60;1.00;;;12.20;99.90;;;;;;5144117;28;20448;-40
2021/05/28 07:10:02;;;;;;;6.63;1.40;;;12.20;99.90;;;;;;5143044;28;20452;-41
2021/05/28 07:12:33;;;;;;;1.10;1.00;;;12.20;99.90;;;;;;5143934;28;20452;-42
2021/05/28 07:15:05;;;;;;;2.03;1.33;;;12.20;99.90;;;;;;5143466;28;20616;-41
2021/05/28 07:17:35;;;;;;;3.45;1.13;;;12.20;99.90;;;;;;5146275;27;20463;-41
2021/05/28 07:20:08;;;;;;;2.30;0.90;;;12.30;99.90;;;;;;5147102;27;20226;-41
2021/05/28 07:22:38;;;;;;;1.87;1.17;;;12.30;99.90;;;;;;5129918;27;20453;-41
2021/05/28 07:25:12;;;;;;;3.40;1.50;;;12.30;99.90;;;;;;5147405;27;20440;-41
2021/05/28 07:27:42;;;;;;;3.65;1.40;;;12.30;99.90;;;;;;5148366;27;20440;-39
2021/05/28 07:30:14;;;;;;;2.72;1.60;;;12.30;99.90;;;;;;5147561;27;20210;-41
2021/05/28 07:32:44;;;;;;;2.43;1.30;;;12.40;99.90;;;;;;5147388;27;20200;-41
2021/05/28 07:35:16;;;;;;;4.70;1.60;;;12.40;99.90;;;;;;5147112;27;20484;-42
2021/05/28 07:37:46;;;;;;;5.53;1.50;;;12.30;99.90;;;;;;5148074;27;20520;-41
2021/05/28 07:40:19;;;;;;;4.28;1.10;;;12.40;99.90;;;;;;5147005;27;20445;-42
2021/05/28 07:42:49;;;;;;;3.80;1.93;;;12.30;99.90;;;;;;5136335;27;20200;-41
2021/05/28 07:45:19;;;;;;;2.37;1.30;;;12.30;99.90;;;;;;5146445;27;20548;-41
2021/05/28 07:47:50;;;;;;;4.40;1.90;;;12.20;99.90;;;;;;5147347;27;20478;-41
2021/05/28 07:50:21;;;;;;;2.80;1.20;;;12.30;99.90;;;;;;5147152;27;20476;-40
2021/05/28 07:52:51;;;;;;;2.77;1.17;;;12.30;99.90;;;;;;5138123;27;20473;-41
2021/05/28 07:55:23;;;;;;;2.47;1.40;;;12.20;99.90;;;;;;5147044;27;20480;-41
2021/05/28 07:57:53;;;;;;;3.30;1.33;;;12.10;99.90;;;;;;5147499;27;20308;-41
2021/05/28 08:00:24;;;;;;;3.10;1.50;;;12.00;99.90;;;;;;5146744;27;20453;-39
2021/05/28 08:02:55;;;;;;;2.15;1.23;;;11.90;99.90;;;;;;5143824;27;20195;-41
2021/05/28 08:05:25;;;;;;;4.20;1.25;;;11.80;99.90;;;;;;5147113;27;20203;-40
2021/05/28 08:07:56;;;;;;;1.25;1.15;;;11.70;99.90;;;;;;5146967;27;20220;-39
2021/05/28 08:10:29;;;;;;;4.63;1.38;;;11.60;99.90;;;;;;5146768;27;20335;-40
2021/05/28 08:12:59;;;;;;;1.38;1.10;;;11.60;99.90;;;;;;5141249;27;20184;-40
2021/05/28 08:15:31;;;;;;;2.95;1.52;;;11.60;99.90;;;;;;5141316;27;20255;-40
2021/05/28 08:18:02;;;;;;;4.97;1.57;;;11.60;99.90;;;;;;5145672;27;20227;-40
2021/05/28 08:20:33;;;;;;;1.83;1.50;;;11.50;99.90;;;;;;5146271;27;20479;-40
2021/05/28 08:23:04;;;;;;;5.47;1.65;;;11.50;99.90;;;;;;5147082;27;20313;-39
2021/05/28 08:25:35;;;;;;;1.60;1.25;;;11.50;99.90;;;;;;5145854;27;20230;-40
2021/05/28 08:28:06;;;;;;;1.75;1.58;;;11.40;99.90;;;;;;5145731;27;20202;-40
2021/05/28 08:30:36;;;;;;;2.22;1.30;;;11.40;99.90;;;;;;5137704;27;20240;-40
2021/05/28 08:33:09;;;;;;;3.80;1.85;;;11.50;99.90;;;;;;5146768;27;20199;-40
2021/05/28 08:35:39;;;;;;;5.75;1.38;;;11.60;99.90;;;;;;5146050;27;20265;-38
2021/05/28 08:38:10;;;;;;;6.13;1.50;;;11.60;99.90;;;;;;5146136;27;20310;-40
2021/05/28 08:40:41;;;;;;;4.45;1.42;;;11.70;99.90;;;;;;5146326;27;20202;-40
2021/05/28 08:43:13;;;;;;;3.85;1.48;;;11.80;99.90;;;;;;5146073;27;20230;-40
2021/05/28 08:45:45;;;;;;;5.47;1.40;;;11.80;99.90;;;;;;5145150;27;20242;-40
2021/05/28 08:48:17;;;;;;;4.00;2.10;;;11.80;99.90;;;;;;5145881;27;20246;-40
2021/05/28 08:50:49;;;;;;;2.03;1.00;;;11.80;99.90;;;;;;5135879;27;20257;-40
2021/05/28 08:53:20;;;;;;;5.32;1.98;;;11.80;99.90;;;;;;5145861;27;20266;-39
2021/05/28 08:55:52;;;;;;;2.65;1.10;;;11.80;99.90;;;;;;5140586;27;20215;-40
2021/05/28 08:58:22;;;;;;;3.10;2.05;;;11.80;99.90;;;;;;5145566;27;20302;-41
2021/05/28 09:00:53;;;;;;;7.10;1.67;;;11.80;99.90;;;;;;5144505;27;20214;-40
2021/05/28 09:03:26;;;;;;;2.13;1.20;;;11.90;99.90;;;;;;5145337;27;20202;-40
2021/05/28 09:05:57;;;;;;;2.65;1.55;;;11.80;99.90;;;;;;5146224;27;20214;-39
2021/05/28 09:08:29;;;;;;;5.20;2.30;;;11.80;99.90;;;;;;5145851;27;20220;-40
2021/05/28 09:11:08;;;;;;;5.10;1.88;;;11.90;99.90;;;;;;5146038;27;20264;-40
2021/05/28 09:13:45;;;;;;;3.75;2.00;;;11.90;99.90;;;;;;5145036;27;20237;-40
2021/05/28 09:16:17;;;;;;;2.17;1.85;;;11.90;99.90;;;;;;5144583;27;20658;-40
2021/05/28 09:18:51;;;;;;;4.63;1.40;;;11.90;99.90;;;;;;5138807;27;20219;-39
2021/05/28 09:21:23;;;;;;;4.68;1.63;;;11.90;99.90;;;;;;5145481;27;20260;-41
2021/05/28 09:23:54;;;;;;;2.85;1.50;;;11.90;99.90;;;;;;5145932;27;20518;-40
2021/05/28 09:26:28;;;;;;;2.95;1.30;;;11.90;99.90;;;;;;5145266;27;20195;-41
2021/05/28 09:28:59;;;;;;;3.05;1.60;;;11.90;99.90;;;;;;5144705;27;20212;-40
2021/05/28 09:31:32;;;;;;;2.88;1.10;;;11.90;99.90;;;;;;5134010;27;20264;-40
2021/05/28 09:34:03;;;;;;;3.17;1.60;;;11.90;99.90;;;;;;5144738;27;20195;-41
2021/05/28 09:36:36;;;;;;;2.50;1.35;;;11.90;99.90;;;;;;5144774;27;20314;-41
2021/05/28 09:39:09;;;;;;;3.17;1.33;;;11.90;99.90;;;;;;5145078;27;20207;-41
2021/05/28 09:41:45;;;;;;;4.37;1.50;;;12.00;99.90;;;;;;5145883;27;20226;-41
2021/05/28 09:44:21;;;;;;;2.93;1.27;;;12.10;99.90;;;;;;5144134;27;20888;-41
2021/05/28 09:47:13;;;;;;;5.73;1.50;;;12.10;99.90;;;;;;5144851;27;20477;-41
2021/05/28 09:49:46;;;;;;;2.58;1.50;;;12.20;99.90;;;;;;5144941;27;20506;-40
2021/05/28 09:52:18;;;;;;;1.63;1.07;;;12.20;99.90;;;;;;5144476;27;20300;-41
2021/05/28 09:55:07;;;;;;;3.50;1.75;;;12.20;99.90;;;;;;5144615;27;20450;-39
2021/05/28 09:57:40;;;;;;;1.55;1.45;;;12.20;99.90;;;;;;5135782;27;20226;-41
2021/05/28 10:00:22;;;;;;;4.30;1.73;;;12.20;99.90;;;;;;5144083;27;20507;-41
2021/05/28 10:03:07;;;;;;;7.97;1.40;;;12.20;99.90;;;;;;5144669;27;20468;-40
2021/05/28 10:05:39;;;;;;;2.72;1.67;;;12.20;99.90;;;;;;5145545;27;20210;-40
2021/05/28 10:08:10;;;;;;;3.38;1.60;;;12.10;99.90;;;;;;5144629;27;20226;-41
2021/05/28 10:10:42;;;;;;;4.68;1.70;;;12.20;99.90;;;;;;5132818;27;20614;-40
2021/05/28 10:13:15;;;;;;;4.35;1.60;;;12.10;99.90;;;;;;5144216;27;20221;-42
2021/05/28 10:15:47;;;;;;;3.30;1.10;;;12.00;99.90;;;;;;5126805;27;20235;-42
2021/05/28 10:18:19;;;;;;;3.78;1.40;;;12.10;99.90;;;;;;5144754;27;20516;-42
2021/05/28 10:20:51;;;;;;;2.17;1.38;;;12.10;99.90;;;;;;5133754;27;20291;-42
2021/05/28 10:23:23;;;;;;;2.78;1.27;;;12.00;99.90;;;;;;5144092;27;20231;-42
2021/05/28 10:25:57;;;;;;;6.00;1.85;;;12.00;99.90;;;;;;5144343;27;20526;-42
2021/05/28 10:28:33;;;;;;;3.28;1.25;;;11.90;99.90;;;;;;5143902;27;20226;-43
2021/05/28 10:31:06;;;;;;;4.57;1.35;;;11.90;99.90;;;;;;5142964;27;20198;-42
2021/05/28 10:33:37;;;;;;;4.30;1.92;;;11.90;99.90;;;;;;5143918;27;20188;-42
2021/05/28 10:36:09;;;;;;;1.25;1.15;;;11.90;99.90;;;;;;5143848;27;20245;-42
2021/05/28 10:38:49;;;;;;;2.43;1.50;;;11.90;99.90;;;;;;5143746;27;20207;-42
2021/05/28 10:41:39;;;;;;;3.03;1.55;;;11.80;99.90;;;;;;5144291;27;20452;-42
2021/05/28 10:44:14;;;;;;;3.20;2.40;;;11.70;99.90;;;;;;5126346;27;20200;-42
2021/05/28 10:47:00;;;;;;;3.33;1.60;;;11.70;99.90;;;;;;5143353;27;20206;-42
2021/05/28 10:49:41;;;;;;;2.92;1.45;;;11.80;99.90;;;;;;5140008;27;20241;-42
2021/05/28 10:52:29;;;;;;;2.50;1.40;;;11.80;99.90;;;;;;5138915;27;20195;-42
2021/05/28 10:55:02;;;;;;;4.68;1.80;;;11.80;99.90;;;;;;5144261;27;20266;-42
2021/05/28 10:57:36;;;;;;;2.30;1.23;;;11.80;99.90;;;;;;5143656;27;20234;-42
2021/05/28 11:00:11;;;;;;;2.63;1.50;;;11.70;99.90;;;;;;5143255;27;20212;-42
2021/05/28 11:02:54;;;;;;;2.85;1.30;;;11.80;99.90;;;;;;5143711;27;20515;-42
2021/05/28 11:05:42;;;;;;;3.88;1.42;;;11.80;99.90;;;;;;5143956;28;20282;-42
2021/05/28 11:08:48;;;;;;;2.60;1.73;;;11.90;99.90;;;;;;5128400;28;20260;-42
2021/05/28 11:11:57;;;;;;;2.65;1.70;;;11.90;99.90;;;;;;5143330;28;20444;-42
2021/05/28 11:14:29;;;;;;;2.35;1.55;;;11.90;99.90;;;;;;5139494;28;20198;-42
2021/05/28 11:17:15;;;;;;;1.75;1.65;;;11.80;99.90;;;;;;5143539;28;20222;-41
2021/05/28 11:19:49;;;;;;;5.33;2.90;;;11.80;99.90;;;;;;5142791;28;20208;-41
2021/05/28 11:22:36;;;;;;;1.92;1.27;;;11.70;99.90;;;;;;5141638;28;20461;-41
2021/05/28 11:25:10;;;;;;;5.43;1.90;;;11.70;99.90;;;;;;5143423;28;20199;-40
2021/05/28 11:27:54;;;;;;;4.65;1.50;;;11.70;99.90;;;;;;5142972;28;20441;-41
2021/05/28 11:30:37;;;;;;;2.85;1.63;;;11.70;99.90;;;;;;5136331;28;20203;-41
2021/05/28 11:33:08;;;;;;;3.00;1.80;;;11.70;99.90;;;;;;5143814;28;20207;-41
2021/05/28 11:35:43;;;;;;;4.35;1.65;;;11.80;99.90;;;;;;5143044;28;20533;-41
2021/05/28 11:38:14;;;;;;;4.93;2.00;;;11.80;99.90;;;;;;5143132;28;20233;-41
2021/05/28 11:40:49;;;;;;;6.55;1.70;;;11.80;99.90;;;;;;5143398;28;20278;-41
2021/05/28 11:43:20;;;;;;;7.60;1.65;;;11.80;99.90;;;;;;5143096;28;20198;-41
2021/05/28 11:45:52;;;;;;;5.20;2.83;;;11.70;99.90;;;;;;5142884;28;20221;-41
2021/05/28 11:48:27;;;;;;;4.55;1.83;;;11.70;99.90;;;;;;5143071;28;20448;-42
2021/05/28 11:51:01;;;;;;;3.20;2.20;;;11.70;99.90;;;;;;5141252;28;20246;-41
2021/05/28 11:53:33;;;;;;;2.08;1.50;;;11.70;99.90;;;;;;5143649;28;20234;-40
2021/05/28 11:56:05;;;;;;;1.97;1.80;;;11.60;99.90;;;;;;5143019;28;20208;-41
2021/05/28 11:58:38;;;;;;;3.33;1.70;;;11.70;99.90;;;;;;5142174;28;20497;-41
2021/05/28 12:01:08;;;;;;;3.95;1.80;;;11.70;99.90;;;;;;5141925;28;20196;-40
2021/05/28 12:03:40;;;;;;;6.32;1.88;;;11.70;99.90;;;;;;5145748;27;20206;-41
2021/05/28 12:06:11;;;;;;;3.22;1.55;;;11.70;99.90;;;;;;5146665;27;20267;-41
2021/05/28 12:08:42;;;;;;;4.10;1.70;;;11.60;99.90;;;;;;5146776;27;20202;-40
2021/05/28 12:11:12;;;;;;;2.40;1.50;;;11.70;99.90;;;;;;5144285;27;20188;-41
2021/05/28 12:13:43;;;;;;;5.03;1.75;;;11.80;99.90;;;;;;5145679;27;20468;-40
2021/05/28 12:16:17;;;;;;;3.00;1.65;;;11.80;99.90;;;;;;5145756;27;20226;-41
2021/05/28 12:18:50;;;;;;;2.95;1.23;;;11.80;99.90;;;;;;5146826;27;20199;-40
2021/05/28 12:21:25;;;;;;;2.83;1.73;;;11.80;99.90;;;;;;5139486;27;20225;-41
2021/05/28 12:23:57;;;;;;;2.50;1.67;;;11.80;99.90;;;;;;5140855;27;20199;-41
2021/05/28 12:26:29;;;;;;;3.25;1.58;;;11.70;99.90;;;;;;5146447;27;20199;-41
2021/05/28 12:29:00;;;;;;;3.42;1.45;;;11.70;99.90;;;;;;5145726;27;20239;-41
2021/05/28 12:31:33;;;;;;;3.15;1.23;;;11.70;99.90;;;;;;5138286;27;20248;-41
2021/05/28 12:34:06;;;;;;;3.07;1.17;;;11.80;99.90;;;;;;5146620;27;20282;-39
2021/05/28 12:36:38;;;;;;;2.95;1.52;;;11.80;99.90;;;;;;5129932;27;20487;-41
2021/05/28 12:39:10;;;;;;;2.80;1.50;;;11.80;99.90;;;;;;5146158;27;20195;-41
2021/05/28 12:41:43;;;;;;;3.70;1.60;;;11.70;99.90;;;;;;5145427;27;20440;-41
2021/05/28 12:44:18;;;;;;;4.95;1.52;;;11.80;99.90;;;;;;5146392;27;20477;-41
2021/05/28 12:46:56;;;;;;;1.70;1.53;;;11.80;99.90;;;;;;5145937;27;20191;-41
2021/05/28 12:49:32;;;;;;;3.10;1.60;;;11.80;99.90;;;;;;5145693;27;20609;-40
2021/05/28 12:52:14;;;;;;;2.87;1.60;;;11.80;99.90;;;;;;5146284;27;20450;-41
2021/05/28 12:54:59;;;;;;;2.03;1.48;;;11.80;99.90;;;;;;5127853;27;20486;-40
2021/05/28 12:57:30;;;;;;;3.90;1.87;;;11.90;99.90;;;;;;5145328;27;20295;-41
2021/05/28 13:00:00;;;;;;;6.25;1.85;;;11.90;99.90;;;;;;5145130;27;20437;-40
2021/05/28 13:02:37;;;;;;;1.70;1.20;;;11.90;99.90;;;;;;5146025;27;20187;-41
2021/05/28 13:05:14;;;;;;;3.87;1.53;;;11.80;99.90;;;;;;5145981;27;20459;-42
2021/05/28 13:07:45;;;;;;;1.90;1.60;;;11.90;99.90;;;;;;5145649;27;20488;-42
2021/05/28 13:10:16;;;;;;;2.95;1.45;;;11.90;99.90;;;;;;5144771;27;20495;-41
2021/05/28 13:12:47;;;;;;;2.00;1.33;;;12.00;99.90;;;;;;5144361;27;20227;-42
2021/05/28 13:15:21;;;;;;;2.00;1.40;;;12.10;99.90;;;;;;5144734;27;20477;-40